createdAt,value
2022-10-25T08:18:07.708Z,16.77
2022-10-25T08:19:39.992Z,17.87
2022-10-25T08:21:12.734Z,16.47
2022-10-25T08:22:44.934Z,16.70
2022-10-25T08:24:17.481Z,16.83
2022-10-25T08:25:50.012Z,16.63
2022-10-25T08:27:22.675Z,16.42
2022-10-25T08:28:55.235Z,16.75
2022-10-25T08:30:27.609Z,15.40
2022-10-25T08:32:00.710Z,17.30
2022-10-25T08:33:33.862Z,16.57
2022-10-25T08:35:06.327Z,16.80
2022-10-25T08:36:38.716Z,16.92
2022-10-25T08:38:10.830Z,17.13
2022-10-25T08:39:44.601Z,17.35
2022-10-25T08:41:32.910Z,17.15
2022-10-25T08:43:54.272Z,17.93
2022-10-25T08:45:55.956Z,17.20
2022-10-25T08:47:45.310Z,16.50
2022-10-25T08:49:51.714Z,16.25
2022-10-25T08:51:35.894Z,16.07
2022-10-25T08:53:27.411Z,15.57
2022-10-25T08:55:05.701Z,16.20
2022-10-25T08:56:46.637Z,14.63
2022-10-25T08:58:38.083Z,13.87
2022-10-25T09:00:20.581Z,13.77
2022-10-25T09:01:59.444Z,13.63
2022-10-25T09:03:32.180Z,12.57
2022-10-25T09:05:14.105Z,12.20
2022-10-25T09:07:27.791Z,10.80
2022-10-25T09:09:29.589Z,11.50
2022-10-25T09:11:31.144Z,11.47
2022-10-25T09:13:31.612Z,11.00
2022-10-25T09:15:41.965Z,11.00
2022-10-25T09:17:31.163Z,11.37
2022-10-25T09:19:15.165Z,10.33
2022-10-25T09:20:52.847Z,10.52
2022-10-25T09:22:29.220Z,10.60
2022-10-25T09:24:46.756Z,10.25
2022-10-25T09:27:03.405Z,10.30
2022-10-25T09:29:02.553Z,9.93
2022-10-25T09:30:43.197Z,10.93
2022-10-25T09:32:29.196Z,10.40
2022-10-25T09:34:07.820Z,9.05
2022-10-25T09:35:53.601Z,10.05
2022-10-25T09:37:38.876Z,9.50
2022-10-25T09:39:25.948Z,9.00
2022-10-25T09:41:05.500Z,9.50
2022-10-25T09:43:01.829Z,8.70
2022-10-25T09:44:44.336Z,8.60
2022-10-25T09:46:35.834Z,9.20
2022-10-25T09:48:21.548Z,8.03
2022-10-25T09:50:03.996Z,8.07
2022-10-25T09:52:18.932Z,7.90
2022-10-25T09:53:53.617Z,8.00
2022-10-25T09:55:48.248Z,8.47
2022-10-25T09:57:20.691Z,8.00
2022-10-25T09:58:53.283Z,7.70
2022-10-25T10:00:25.639Z,7.93
2022-10-25T10:01:57.902Z,8.50
2022-10-25T10:03:36.035Z,8.80
2022-10-25T10:05:18.381Z,9.00
2022-10-25T10:06:53.819Z,8.50
2022-10-25T10:08:28.563Z,7.90
2022-10-25T10:10:08.953Z,8.23
2022-10-25T10:11:44.328Z,8.77
2022-10-25T10:13:47.663Z,8.33
2022-10-25T10:15:31.752Z,7.90
2022-10-25T10:17:07.164Z,8.40
2022-10-25T10:18:41.033Z,8.23
2022-10-25T10:20:17.594Z,7.43
2022-10-25T10:22:15.458Z,7.57
2022-10-25T10:23:53.799Z,7.53
2022-10-25T10:25:28.332Z,7.40
2022-10-25T10:27:06.896Z,7.33
2022-10-25T10:28:55.017Z,7.87
2022-10-25T10:30:31.934Z,7.27
2022-10-25T10:32:32.026Z,7.30
2022-10-25T10:34:06.211Z,8.67
2022-10-25T10:35:38.665Z,7.73
2022-10-25T10:37:25.512Z,10.10
2022-10-25T10:39:33.855Z,8.10
2022-10-25T10:41:36.072Z,8.27
2022-10-25T10:43:41.524Z,8.23
2022-10-25T10:45:20.679Z,7.77
2022-10-25T10:46:57.228Z,7.30
2022-10-25T10:48:41.745Z,7.30
2022-10-25T10:50:28.814Z,7.13
2022-10-25T10:52:02.993Z,8.10
2022-10-25T10:53:35.936Z,7.33
2022-10-25T10:55:27.887Z,8.20
2022-10-25T10:57:07.166Z,7.30
2022-10-25T10:58:42.122Z,8.20
2022-10-25T11:00:28.939Z,7.87
2022-10-25T11:02:39.440Z,7.70
2022-10-25T11:04:12.244Z,7.70
2022-10-25T11:05:54.240Z,6.70
2022-10-25T11:07:34.266Z,7.03
2022-10-25T11:09:23.844Z,7.70
2022-10-25T11:11:23.867Z,7.03
2022-10-25T11:13:19.740Z,7.30
2022-10-25T11:14:51.933Z,7.60
2022-10-25T11:17:03.774Z,7.43
2022-10-25T11:19:11.023Z,8.10
2022-10-25T11:21:06.999Z,7.70
2022-10-25T11:23:06.960Z,7.97
2022-10-25T11:25:10.071Z,7.47
2022-10-25T11:27:18.576Z,6.57
2022-10-25T11:29:36.191Z,7.33
2022-10-25T11:31:39.041Z,7.77
2022-10-25T11:33:45.810Z,7.10
2022-10-25T11:36:02.243Z,6.30
2022-10-25T11:38:03.678Z,6.03
2022-10-25T11:39:38.800Z,6.87
2022-10-25T11:41:45.478Z,6.13
2022-10-25T11:43:47.691Z,5.90
2022-10-25T11:45:41.382Z,6.40
2022-10-25T11:48:07.852Z,6.33
2022-10-25T11:50:05.840Z,6.13
2022-10-25T11:51:48.331Z,6.17
2022-10-25T11:53:51.048Z,5.57
2022-10-25T11:55:50.310Z,6.53
2022-10-25T11:57:32.695Z,6.27
2022-10-25T11:59:24.209Z,6.10
2022-10-25T12:01:19.813Z,6.13
2022-10-25T12:03:14.007Z,6.90
2022-10-25T12:04:53.367Z,5.53
2022-10-25T12:07:11.354Z,5.47
2022-10-25T12:09:06.744Z,5.93
2022-10-25T13:07:11.252Z,4.70
2022-10-25T14:42:41.245Z,6.77
2022-10-25T14:44:53.827Z,6.37
2022-10-25T14:46:30.851Z,6.07
2022-10-25T14:48:10.600Z,5.23
2022-10-25T14:49:43.225Z,5.60
2022-10-25T14:51:27.009Z,6.03
2022-10-25T14:53:01.157Z,6.43
2022-10-25T14:54:36.443Z,7.17
2022-10-25T14:56:10.144Z,7.47
2022-10-25T14:57:46.557Z,7.50
2022-10-25T14:59:52.064Z,7.27
2022-10-25T15:01:25.919Z,6.63
2022-10-25T15:03:05.499Z,7.60
2022-10-25T15:04:48.592Z,7.60
2022-10-25T15:06:26.376Z,7.63
2022-10-25T15:08:00.779Z,9.43
2022-10-25T15:09:49.240Z,8.83
2022-10-25T15:11:21.478Z,8.43
2022-10-25T15:12:53.759Z,7.17
2022-10-25T15:14:31.125Z,6.07
2022-10-25T15:16:23.719Z,7.10
2022-10-25T15:17:56.633Z,7.63
2022-10-25T15:19:29.334Z,7.57
2022-10-25T15:21:17.599Z,8.00
2022-10-25T15:22:51.245Z,9.57
2022-10-25T15:24:28.169Z,8.77
2022-10-25T15:26:51.065Z,8.83
2022-10-25T15:28:23.837Z,9.20
2022-10-25T15:29:56.349Z,9.80
2022-10-25T15:31:32.316Z,9.07
2022-10-25T15:33:13.029Z,9.13
2022-10-25T15:34:52.962Z,9.07
2022-10-25T15:36:29.389Z,9.43
2022-10-25T15:38:01.803Z,9.47
2022-10-25T15:39:34.161Z,10.80
2022-10-25T15:41:08.608Z,10.50
2022-10-25T15:42:40.760Z,16.63
2022-10-25T15:44:13.237Z,24.97
2022-10-25T15:45:46.243Z,29.70
2022-10-25T15:47:27.502Z,30.77
2022-10-25T15:49:04.963Z,30.60
2022-10-25T15:50:45.326Z,26.73
2022-10-25T15:52:18.139Z,29.77
2022-10-25T15:53:50.672Z,28.33
2022-10-25T15:55:27.330Z,23.90
2022-10-25T15:57:00.179Z,24.13
2022-10-25T15:58:32.370Z,20.97
2022-10-25T16:00:05.050Z,19.93
2022-10-25T16:01:41.758Z,19.87
2022-10-25T16:03:23.945Z,20.00
2022-10-25T16:04:56.848Z,18.87
2022-10-25T16:06:29.616Z,19.70
2022-10-25T16:08:02.795Z,21.23
2022-10-25T16:09:35.226Z,20.43
2022-10-25T16:11:17.725Z,19.77
2022-10-25T16:13:06.420Z,20.67
2022-10-25T16:14:38.742Z,24.40
2022-10-25T16:16:42.296Z,22.60
2022-10-25T16:18:14.653Z,21.47
2022-10-25T16:19:47.246Z,23.40
2022-10-25T16:21:20.943Z,26.20
2022-10-25T16:22:55.603Z,29.80
2022-10-25T16:24:27.821Z,28.33
2022-10-25T16:26:00.596Z,32.37
2022-10-25T16:27:32.740Z,40.13
2022-10-25T16:29:06.442Z,43.70
2022-10-25T16:30:40.545Z,37.17
2022-10-25T16:32:18.522Z,43.13
2022-10-25T16:33:50.875Z,37.43
2022-10-25T16:35:24.695Z,37.27
2022-10-25T16:36:57.943Z,39.20
2022-10-25T16:38:30.186Z,42.77
2022-10-25T16:40:02.478Z,45.27
2022-10-25T16:41:39.862Z,46.13
2022-10-25T16:43:13.745Z,50.10
2022-10-25T16:44:45.979Z,56.47
2022-10-25T16:46:19.127Z,57.73
2022-10-25T16:47:52.537Z,63.47
2022-10-25T16:49:24.929Z,66.27
2022-10-25T16:50:57.420Z,64.53
2022-10-25T16:52:29.543Z,58.33
2022-10-25T16:54:02.733Z,65.43
2022-10-25T16:55:35.434Z,63.63
2022-10-25T16:57:08.442Z,61.50
2022-10-25T16:58:41.640Z,59.83
2022-10-25T17:00:15.310Z,69.70
2022-10-25T17:01:55.624Z,62.33
2022-10-25T17:03:27.998Z,71.13
2022-10-25T17:05:00.513Z,70.83
2022-10-25T17:06:41.350Z,67.47
2022-10-25T17:08:15.288Z,50.50
2022-10-25T17:09:47.485Z,49.93
2022-10-25T17:11:19.940Z,48.50
2022-10-25T17:13:01.574Z,56.57
2022-10-25T17:14:34.351Z,57.17
2022-10-25T17:16:11.431Z,62.83
2022-10-25T17:17:45.741Z,61.77
2022-10-25T17:19:18.712Z,57.50
2022-10-25T17:20:51.649Z,61.47
2022-10-25T17:22:25.376Z,57.43
2022-10-25T17:23:57.607Z,54.93
2022-10-25T17:25:30.156Z,50.73
2022-10-25T17:27:02.592Z,48.07
2022-10-25T17:28:37.796Z,46.10
2022-10-25T17:30:13.663Z,53.00
2022-10-25T17:31:46.164Z,53.43
2022-10-25T17:33:18.493Z,54.40
2022-10-25T17:34:51.187Z,55.70
2022-10-25T17:36:23.387Z,57.00
2022-10-25T17:37:56.368Z,62.53
2022-10-25T17:39:28.883Z,61.27
2022-10-25T17:41:01.324Z,61.60
2022-10-25T17:42:34.025Z,65.87
2022-10-25T17:44:06.969Z,69.03
2022-10-25T17:45:40.990Z,66.40
2022-10-25T17:47:14.917Z,62.70
2022-10-25T17:48:47.842Z,59.43
2022-10-25T17:50:22.538Z,61.53
2022-10-25T17:51:55.041Z,57.03
2022-10-25T17:53:27.259Z,54.00
2022-10-25T17:54:59.476Z,57.43
2022-10-25T17:58:09.064Z,50.63
2022-10-25T17:59:41.397Z,64.07
2022-10-25T18:01:18.117Z,60.33
2022-10-25T18:02:51.540Z,54.00
2022-10-25T18:04:24.698Z,49.63
2022-10-25T18:06:04.512Z,41.13
2022-10-25T18:07:37.808Z,40.80
2022-10-25T18:09:10.236Z,39.00
2022-10-25T18:10:42.885Z,39.83
2022-10-25T18:12:16.316Z,41.00
2022-10-25T18:14:01.582Z,40.67
2022-10-25T18:15:35.879Z,38.83
2022-10-25T18:17:08.196Z,40.13
2022-10-25T18:18:40.598Z,44.53
2022-10-25T18:20:13.422Z,47.97
2022-10-25T18:21:45.918Z,52.73
2022-10-25T18:23:18.405Z,41.67
2022-10-25T18:24:50.667Z,38.03
2022-10-25T18:26:23.671Z,41.57
2022-10-25T18:27:55.860Z,50.70
2022-10-25T18:29:28.500Z,57.17
2022-10-25T18:31:03.606Z,53.80
2022-10-25T18:32:36.377Z,42.37
2022-10-25T18:34:08.740Z,39.37
2022-10-25T18:35:42.335Z,34.20
2022-10-25T18:37:14.522Z,32.00
2022-10-25T18:38:47.959Z,32.77
2022-10-25T18:40:21.213Z,33.83
2022-10-25T18:41:55.625Z,30.50
2022-10-25T18:43:27.790Z,32.03
2022-10-25T18:45:00.004Z,33.23
2022-10-25T18:46:34.397Z,34.30
2022-10-25T18:48:07.283Z,59.93
2022-10-25T18:49:39.515Z,96.60
2022-10-25T18:51:14.306Z,64.20
2022-10-25T18:52:46.803Z,75.70
2022-10-25T18:54:19.274Z,88.83
2022-10-25T18:55:51.769Z,101.80
2022-10-25T18:57:24.164Z,75.67
2022-10-25T18:58:58.376Z,62.27
2022-10-25T19:00:31.483Z,46.23
2022-10-25T19:02:03.836Z,41.30
2022-10-25T19:03:37.461Z,42.57
2022-10-25T19:05:10.936Z,39.53
2022-10-25T19:06:44.353Z,42.50
2022-10-25T19:08:16.640Z,41.70
2022-10-25T19:09:49.336Z,36.97
2022-10-25T19:11:22.034Z,37.77
2022-10-25T19:12:54.397Z,36.77
2022-10-25T19:14:26.829Z,40.33
2022-10-25T19:15:59.547Z,41.47
2022-10-25T19:17:32.153Z,39.27
2022-10-25T19:19:07.190Z,39.33
2022-10-25T19:20:41.880Z,40.00
2022-10-25T19:22:18.588Z,32.93
2022-10-25T19:23:54.100Z,31.70
2022-10-25T19:25:29.795Z,31.60
2022-10-25T19:27:02.908Z,32.83
2022-10-25T19:28:36.706Z,26.93
2022-10-25T19:30:09.686Z,28.70
2022-10-25T19:31:41.920Z,28.37
2022-10-25T19:33:14.279Z,27.50
2022-10-25T19:34:47.197Z,29.57
2022-10-25T19:36:20.567Z,30.20
2022-10-25T19:37:53.974Z,33.90
2022-10-25T19:39:27.458Z,34.37
2022-10-25T19:41:01.813Z,34.20
2022-10-25T19:42:34.895Z,33.97
2022-10-25T19:44:07.615Z,31.93
2022-10-25T19:45:43.514Z,26.60
2022-10-25T19:47:15.747Z,29.07
2022-10-25T19:48:48.832Z,31.93
2022-10-25T19:50:22.279Z,27.47
2022-10-25T19:51:54.987Z,27.20
2022-10-25T19:53:27.464Z,27.43
2022-10-25T19:54:59.826Z,24.07
2022-10-25T19:56:34.000Z,24.87
2022-10-25T19:58:07.887Z,20.93
2022-10-25T19:59:40.579Z,21.40
2022-10-25T20:01:24.174Z,20.90
2022-10-25T20:02:56.487Z,19.97
2022-10-25T20:04:28.913Z,21.97
2022-10-25T20:06:05.980Z,22.00
2022-10-25T20:07:39.219Z,20.83
2022-10-25T20:09:11.926Z,20.87
2022-10-25T20:10:44.668Z,20.27
2022-10-25T20:12:17.798Z,22.80
2022-10-25T20:13:56.026Z,23.53
2022-10-25T20:15:28.233Z,25.83
2022-10-25T20:17:01.508Z,23.53
2022-10-25T20:18:37.803Z,23.03
2022-10-25T20:20:11.413Z,24.40
2022-10-25T20:21:43.697Z,22.60
2022-10-25T20:23:16.813Z,26.40
2022-10-25T20:24:49.632Z,23.07
2022-10-25T20:26:25.227Z,22.40
2022-10-25T20:28:02.384Z,21.67
2022-10-25T20:29:34.819Z,29.30
2022-10-25T20:31:07.516Z,25.80
2022-10-25T20:32:39.935Z,20.37
2022-10-25T20:34:12.494Z,16.80
2022-10-25T20:35:45.875Z,19.30
2022-10-25T20:37:18.103Z,18.80
2022-10-25T20:38:51.456Z,20.00
2022-10-25T20:40:24.472Z,18.70
2022-10-25T20:41:56.803Z,17.90
2022-10-25T20:43:29.283Z,17.13
2022-10-25T20:46:38.660Z,17.07
2022-10-25T20:48:11.121Z,15.70
2022-10-25T20:49:43.764Z,15.53
2022-10-25T20:51:17.562Z,16.00
2022-10-25T20:53:09.176Z,17.90
2022-10-25T20:54:42.378Z,18.50
2022-10-25T20:56:17.724Z,20.53
2022-10-25T20:57:50.549Z,22.87
2022-10-25T20:59:23.231Z,22.40
2022-10-25T21:00:57.553Z,22.50
2022-10-25T21:02:30.448Z,22.33
2022-10-25T21:04:03.022Z,22.57
2022-10-25T21:05:36.239Z,23.13
2022-10-25T21:07:08.533Z,23.83
2022-10-25T21:08:41.384Z,24.87
2022-10-25T21:10:14.052Z,24.50
2022-10-25T21:11:47.660Z,25.70
2022-10-25T21:13:20.169Z,25.33
2022-10-25T21:14:52.477Z,25.97
2022-10-25T21:16:24.675Z,25.10
2022-10-25T21:17:56.823Z,24.50
2022-10-25T21:19:29.144Z,24.53
2022-10-25T21:21:04.724Z,24.03
2022-10-25T21:22:41.055Z,25.30
2022-10-25T21:24:14.239Z,24.87
2022-10-25T21:25:46.467Z,25.20
2022-10-25T21:27:18.765Z,24.97
2022-10-25T21:28:51.212Z,25.43
2022-10-25T21:30:23.903Z,28.30
2022-10-25T21:31:56.032Z,27.63
2022-10-25T21:33:28.523Z,25.80
2022-10-25T21:35:01.592Z,28.00
2022-10-25T21:36:34.089Z,27.87
2022-10-25T21:38:06.236Z,28.87
2022-10-25T21:39:38.587Z,28.37
2022-10-25T21:41:16.426Z,28.47
2022-10-25T21:42:49.222Z,30.93
2022-10-25T21:44:22.498Z,30.73
2022-10-25T21:45:58.884Z,33.23
2022-10-25T21:47:31.128Z,31.47
2022-10-25T21:49:03.703Z,30.10
2022-10-25T21:50:35.840Z,32.43
2022-10-25T21:52:08.051Z,43.20
2022-10-25T21:53:41.082Z,40.77
2022-10-25T21:55:13.311Z,42.13
2022-10-25T21:56:45.548Z,41.90
2022-10-25T21:58:17.745Z,39.03
2022-10-25T21:59:50.164Z,37.63
2022-10-25T22:01:27.290Z,34.37
2022-10-25T22:02:59.543Z,32.50
2022-10-25T22:04:32.188Z,33.53
2022-10-25T22:06:13.430Z,32.53
2022-10-25T22:07:46.266Z,31.70
2022-10-25T22:09:18.887Z,30.83
2022-10-25T22:11:03.842Z,32.23
2022-10-25T22:12:35.993Z,33.67
2022-10-25T22:14:13.482Z,30.30
2022-10-25T22:15:59.986Z,28.63
2022-10-25T22:17:32.216Z,35.47
2022-10-25T22:19:08.569Z,33.90
2022-10-25T22:20:40.755Z,36.03
2022-10-25T22:22:13.115Z,38.77
2022-10-25T22:23:45.507Z,33.57
2022-10-25T22:25:17.874Z,36.50
2022-10-25T22:26:51.267Z,36.30
2022-10-25T22:28:23.438Z,48.07
2022-10-25T22:29:55.776Z,43.33
2022-10-25T22:31:30.017Z,48.37
2022-10-25T22:33:02.485Z,53.50
2022-10-25T22:34:34.908Z,47.17
2022-10-25T22:36:17.519Z,57.47
2022-10-25T22:37:49.991Z,45.23
2022-10-25T22:39:22.608Z,72.97
2022-10-25T22:41:01.095Z,53.77
2022-10-25T22:42:33.226Z,60.67
2022-10-25T22:44:06.308Z,61.67
2022-10-25T22:45:38.836Z,66.30
2022-10-25T22:47:11.108Z,62.17
2022-10-25T22:48:44.954Z,52.23
2022-10-25T22:50:17.471Z,58.43
2022-10-25T22:51:49.639Z,55.97
2022-10-25T22:53:22.663Z,47.43
2022-10-25T22:54:54.791Z,59.90
2022-10-25T22:56:30.240Z,57.97
2022-10-25T22:58:02.490Z,73.00
2022-10-25T22:59:35.060Z,72.43
2022-10-25T23:01:26.091Z,48.63
2022-10-25T23:02:58.436Z,58.37
2022-10-25T23:04:30.810Z,82.83
2022-10-25T23:06:05.492Z,62.63
2022-10-25T23:07:37.925Z,71.73
2022-10-25T23:09:11.700Z,76.93
2022-10-25T23:10:45.780Z,60.83
2022-10-25T23:12:18.109Z,75.37
2022-10-25T23:13:51.103Z,66.43
2022-10-25T23:15:23.549Z,69.00
2022-10-25T23:16:55.702Z,57.93
2022-10-25T23:18:28.832Z,75.60
2022-10-25T23:20:00.959Z,73.40
2022-10-25T23:21:33.407Z,59.83
2022-10-25T23:23:05.544Z,61.80
2022-10-25T23:24:37.743Z,53.23
2022-10-25T23:26:20.788Z,54.57
2022-10-25T23:27:52.952Z,59.73
2022-10-25T23:29:25.141Z,57.50
2022-10-25T23:31:09.545Z,83.53
2022-10-25T23:32:42.544Z,46.87
2022-10-25T23:34:15.051Z,81.50
2022-10-25T23:35:47.523Z,73.07
2022-10-25T23:37:19.645Z,72.27
2022-10-25T23:38:54.275Z,60.07
2022-10-25T23:40:26.640Z,57.47
2022-10-25T23:41:59.080Z,53.73
2022-10-25T23:43:31.689Z,75.57
2022-10-25T23:45:05.360Z,94.97
2022-10-25T23:46:37.778Z,75.53
2022-10-25T23:48:10.092Z,71.57
2022-10-25T23:49:42.450Z,74.03
2022-10-25T23:51:18.258Z,69.20
2022-10-25T23:52:50.999Z,56.93
2022-10-25T23:54:23.492Z,59.47
2022-10-25T23:55:56.568Z,79.87
2022-10-25T23:57:29.012Z,87.67
2022-10-25T23:59:01.608Z,59.87
